OEHL

Ha'il Regional Airport

Airport
ICAO code
OEHL
Summary
ICAO Region
MID
ICAO Territory
Location

Hail,

Coordinates
27° 26' 23" N , 41° 41' 14" E
KCC
Airport WX
Sand Storm
Metar
Observation
OEHL 311900Z 03004KT CAVOK 11/05 Q1014 NOSIG
Station
Hail
Date/Time
2023-01-31 19:00:00
Wind direction
30°
Wind speed
04 kts
Lowest cloud amount
clouds and visibility OK
Temperature
11°C
Dew point
5°C
Humidity
66%
QNH
1014 hPa
Weather condition
n/a

Description

Regional airport situated 10 km south of Hail in Saudi Arabia.

Climatology

Hot Desert Climate (Köppen climate classification BWh) - Hot desert climates are typically found in the subtropics where there is unbroken sunshine for the whole year due to the stable descending air and high pressure, little or no precipitation. Maximum temperatures of 40°C to 45°C are not uncommon, particularly during the warmer months of the year. During colder periods of the year, night-time temperatures can drop to freezing or below due to the exceptional radiation loss under the clear skies. However, very rarely do temperatures drop far below freezing.

Runways

Designator Length Width Surface Rops
18/36 3720 45 ASP Yes/Yes

Airport map

Aerial View

SKYbrary Partners:

Safety knowledge contributed by: